sensor_id;sensor_type;location;lat;lon;timestamp;pressure;altitude;pressure_sealevel;temperature;humidity
68889;BME280;55930;47.412;8.790;2023-02-28T00:02:13;94763.81;;;-2.99;100.00
68889;BME280;55930;47.412;8.790;2023-02-28T00:05:33;94772.00;;;-2.94;100.00
68889;BME280;55930;47.412;8.790;2023-02-28T00:08:54;94772.31;;;-3.02;100.00
68889;BME280;55930;47.412;8.790;2023-02-28T00:12:14;94768.31;;;-2.86;100.00
68889;BME280;55930;47.412;8.790;2023-02-28T00:15:37;94770.91;;;-2.86;100.00
68889;BME280;55930;47.412;8.790;2023-02-28T00:18:57;94770.50;;;-2.95;100.00
68889;BME280;55930;47.412;8.790;2023-02-28T00:22:19;94774.22;;;-2.92;100.00
68889;BME280;55930;47.412;8.790;2023-02-28T00:25:40;94771.25;;;-2.98;100.00
68889;BME280;55930;47.412;8.790;2023-02-28T00:29:00;94765.34;;;-2.91;100.00
68889;BME280;55930;47.412;8.790;2023-02-28T00:32:20;94768.66;;;-2.91;100.00
68889;BME280;55930;47.412;8.790;2023-02-28T00:35:41;94780.19;;;-2.85;100.00
68889;BME280;55930;47.412;8.790;2023-02-28T00:39:01;94774.22;;;-2.92;100.00
68889;BME280;55930;47.412;8.790;2023-02-28T00:42:22;94774.66;;;-2.80;100.00
68889;BME280;55930;47.412;8.790;2023-02-28T00:45:43;94771.28;;;-2.84;100.00
68889;BME280;55930;47.412;8.790;2023-02-28T00:49:06;94774.59;;;-2.94;100.00
68889;BME280;55930;47.412;8.790;2023-02-28T00:52:26;94768.66;;;-2.91;100.00
68889;BME280;55930;47.412;8.790;2023-02-28T00:55:47;94772.75;;;-2.86;100.00
68889;BME280;55930;47.412;8.790;2023-02-28T00:59:08;94760.88;;;-2.87;100.00
68889;BME280;55930;47.412;8.790;2023-02-28T01:02:28;94767.94;;;-2.88;100.00
68889;BME280;55930;47.412;8.790;2023-02-28T01:05:49;94765.00;;;-2.83;100.00
68889;BME280;55930;47.412;8.790;2023-02-28T01:09:10;94760.53;;;-2.82;100.00
68889;BME280;55930;47.412;8.790;2023-02-28T01:12:31;94767.56;;;-2.86;100.00
68889;BME280;55930;47.412;8.790;2023-02-28T01:15:55;94760.53;;;-2.86;100.00
68889;BME280;55930;47.412;8.790;2023-02-28T01:19:18;94764.22;;;-2.87;100.00
68889;BME280;55930;47.412;8.790;2023-02-28T01:22:38;94754.97;;;-2.88;100.00
68889;BME280;55930;47.412;8.790;2023-02-28T01:26:11;94763.88;;;-2.89;100.00
68889;BME280;55930;47.412;8.790;2023-02-28T01:29:32;94775.72;;;-2.84;100.00
68889;BME280;55930;47.412;8.790;2023-02-28T01:32:52;94763.84;;;-2.92;100.00
68889;BME280;55930;47.412;8.790;2023-02-28T01:36:16;94769.78;;;-2.92;100.00
68889;BME280;55930;47.412;8.790;2023-02-28T01:39:36;94767.91;;;-2.95;100.00
68889;BME280;55930;47.412;8.790;2023-02-28T01:42:57;94764.22;;;-2.90;100.00
68889;BME280;55930;47.412;8.790;2023-02-28T01:46:17;94761.59;;;-2.94;100.00
68889;BME280;55930;47.412;8.790;2023-02-28T01:49:38;94766.81;;;-2.90;100.00
68889;BME280;55930;47.412;8.790;2023-02-28T01:53:01;94762.34;;;-2.97;100.00
68889;BME280;55930;47.412;8.790;2023-02-28T01:56:27;94759.38;;;-2.99;100.00
68889;BME280;55930;47.412;8.790;2023-02-28T02:00:01;94761.59;;;-2.94;100.00
68889;BME280;55930;47.412;8.790;2023-02-28T02:03:30;94769.78;;;-2.95;100.00
68889;BME280;55930;47.412;8.790;2023-02-28T02:06:51;94761.63;;;-2.90;100.00
68889;BME280;55930;47.412;8.790;2023-02-28T02:10:13;94751.97;;;-2.97;100.00
68889;BME280;55930;47.412;8.790;2023-02-28T02:17:25;94746.38;;;-3.06;100.00
68889;BME280;55930;47.412;8.790;2023-02-28T02:32:44;94739.75;;;-2.93;100.00
68889;BME280;55930;47.412;8.790;2023-02-28T02:36:25;94743.88;;;-2.81;100.00
68889;BME280;55930;47.412;8.790;2023-02-28T02:39:53;94747.13;;;-3.02;100.00
68889;BME280;55930;47.412;8.790;2023-02-28T02:43:39;94743.09;;;-2.96;100.00
68889;BME280;55930;47.412;8.790;2023-02-28T02:47:09;94747.94;;;-2.80;100.00
68889;BME280;55930;47.412;8.790;2023-02-28T02:50:35;94750.91;;;-2.82;100.00
68889;BME280;55930;47.412;8.790;2023-02-28T02:54:14;94742.34;;;-2.93;100.00
68889;BME280;55930;47.412;8.790;2023-02-28T02:57:48;94731.22;;;-3.04;100.00
68889;BME280;55930;47.412;8.790;2023-02-28T03:01:16;94737.53;;;-2.87;100.00
68889;BME280;55930;47.412;8.790;2023-02-28T03:04:58;94734.91;;;-2.94;100.00
68889;BME280;55930;47.412;8.790;2023-02-28T03:08:20;94734.16;;;-2.95;100.00
68889;BME280;55930;47.412;8.790;2023-02-28T03:11:41;94737.50;;;-2.94;100.00
68889;BME280;55930;47.412;8.790;2023-02-28T03:15:21;94729.38;;;-2.86;100.00
68889;BME280;55930;47.412;8.790;2023-02-28T03:26:04;94734.91;;;-3.01;100.00
68889;BME280;55930;47.412;8.790;2023-02-28T03:29:35;94727.50;;;-2.99;100.00
68889;BME280;55930;47.412;8.790;2023-02-28T03:36:53;94727.84;;;-3.01;100.00
68889;BME280;55930;47.412;8.790;2023-02-28T03:40:19;94739.38;;;-2.95;100.00
68889;BME280;55930;47.412;8.790;2023-02-28T03:43:46;94733.06;;;-2.97;100.00
68889;BME280;55930;47.412;8.790;2023-02-28T03:47:22;94737.13;;;-3.03;100.00
68889;BME280;55930;47.412;8.790;2023-02-28T03:50:47;94741.19;;;-3.10;100.00
68889;BME280;55930;47.412;8.790;2023-02-28T03:54:13;94731.91;;;-3.14;100.00
68889;BME280;55930;47.412;8.790;2023-02-28T04:01:31;94737.09;;;-3.11;100.00
68889;BME280;55930;47.412;8.790;2023-02-28T04:04:54;94736.75;;;-3.05;100.00
68889;BME280;55930;47.412;8.790;2023-02-28T04:08:14;94743.00;;;-3.17;100.00
68889;BME280;55930;47.412;8.790;2023-02-28T04:11:45;94732.66;;;-3.06;100.00
68889;BME280;55930;47.412;8.790;2023-02-28T04:15:09;94751.56;;;-3.13;100.00
68889;BME280;55930;47.412;8.790;2023-02-28T04:18:31;94749.31;;;-3.15;100.00
68889;BME280;55930;47.412;8.790;2023-02-28T04:21:52;94753.38;;;-3.21;100.00
68889;BME280;55930;47.412;8.790;2023-02-28T04:25:13;94759.69;;;-3.11;100.00
68889;BME280;55930;47.412;8.790;2023-02-28T04:28:36;94764.13;;;-3.19;100.00
68889;BME280;55930;47.412;8.790;2023-02-28T04:31:57;94763.06;;;-3.07;100.00
68889;BME280;55930;47.412;8.790;2023-02-28T04:35:21;94767.84;;;-3.20;100.00
68889;BME280;55930;47.412;8.790;2023-02-28T04:38:41;94761.53;;;-3.19;100.00
68889;BME280;55930;47.412;8.790;2023-02-28T04:42:02;94759.28;;;-3.24;100.00
68889;BME280;55930;47.412;8.790;2023-02-28T04:45:23;94757.06;;;-3.18;100.00
68889;BME280;55930;47.412;8.790;2023-02-28T04:48:44;94765.59;;;-3.21;100.00
68889;BME280;55930;47.412;8.790;2023-02-28T04:52:06;94770.03;;;-3.22;100.00
68889;BME280;55930;47.412;8.790;2023-02-28T04:55:27;94766.34;;;-3.21;100.00
68889;BME280;55930;47.412;8.790;2023-02-28T04:58:48;94764.88;;;-3.15;100.00
68889;BME280;55930;47.412;8.790;2023-02-28T05:02:09;94771.19;;;-3.09;100.00
68889;BME280;55930;47.412;8.790;2023-02-28T05:05:29;94774.91;;;-3.10;100.00
68889;BME280;55930;47.412;8.790;2023-02-28T05:08:50;94771.53;;;-3.17;100.00
68889;BME280;55930;47.412;8.790;2023-02-28T05:12:10;94774.53;;;-3.12;100.00
68889;BME280;55930;47.412;8.790;2023-02-28T05:15:31;94779.31;;;-3.21;100.00
68889;BME280;55930;47.412;8.790;2023-02-28T05:18:51;94791.19;;;-3.16;100.00
68889;BME280;55930;47.412;8.790;2023-02-28T05:22:15;94787.13;;;-3.10;100.00
68889;BME280;55930;47.412;8.790;2023-02-28T05:25:41;94791.56;;;-3.11;100.00
68889;BME280;55930;47.412;8.790;2023-02-28T05:29:02;94785.28;;;-3.13;100.00
68889;BME280;55930;47.412;8.790;2023-02-28T05:32:22;94781.91;;;-3.21;100.00
68889;BME280;55930;47.412;8.790;2023-02-28T05:35:43;94789.03;;;-3.03;100.00
68889;BME280;55930;47.412;8.790;2023-02-28T05:39:05;94783.44;;;-3.13;100.00
68889;BME280;55930;47.412;8.790;2023-02-28T05:42:26;94787.47;;;-3.19;100.00
68889;BME280;55930;47.412;8.790;2023-02-28T05:45:46;94789.41;;;-2.98;100.00
68889;BME280;55930;47.412;8.790;2023-02-28T05:49:07;94783.81;;;-3.07;100.00
68889;BME280;55930;47.412;8.790;2023-02-28T05:52:28;94798.63;;;-3.08;100.00
68889;BME280;55930;47.412;8.790;2023-02-28T05:55:50;94808.28;;;-3.01;100.00
68889;BME280;55930;47.412;8.790;2023-02-28T05:59:10;94803.81;;;-3.08;100.00
68889;BME280;55930;47.412;8.790;2023-02-28T06:02:31;94807.19;;;-3.00;100.00
68889;BME280;55930;47.412;8.790;2023-02-28T06:05:51;94807.50;;;-3.16;100.00
68889;BME280;55930;47.412;8.790;2023-02-28T06:09:12;94806.81;;;-3.02;100.00
68889;BME280;55930;47.412;8.790;2023-02-28T06:12:32;94809.72;;;-3.11;100.00
68889;BME280;55930;47.412;8.790;2023-02-28T06:15:53;94806.78;;;-3.09;100.00
68889;BME280;55930;47.412;8.790;2023-02-28T06:19:13;94817.50;;;-3.14;100.00
68889;BME280;55930;47.412;8.790;2023-02-28T06:22:35;94809.72;;;-3.11;100.00
68889;BME280;55930;47.412;8.790;2023-02-28T06:25:56;94810.47;;;-3.14;100.00
68889;BME280;55930;47.412;8.790;2023-02-28T06:29:19;94824.19;;;-3.10;100.00
68889;BME280;55930;47.412;8.790;2023-02-28T06:32:39;94833.78;;;-3.17;100.00
68889;BME280;55930;47.412;8.790;2023-02-28T06:36:00;94838.66;;;-3.09;100.00
68889;BME280;55930;47.412;8.790;2023-02-28T06:39:21;94840.94;;;-2.96;100.00
68889;BME280;55930;47.412;8.790;2023-02-28T06:42:42;94840.63;;;-2.88;100.00
68889;BME280;55930;47.412;8.790;2023-02-28T06:46:05;94847.63;;;-2.92;100.00
68889;BME280;55930;47.412;8.790;2023-02-28T06:49:26;94844.34;;;-2.82;100.00
68889;BME280;55930;47.412;8.790;2023-02-28T06:52:47;94845.81;;;-2.88;100.00
68889;BME280;55930;47.412;8.790;2023-02-28T06:56:11;94852.91;;;-2.71;100.00
68889;BME280;55930;47.412;8.790;2023-02-28T06:59:31;94848.44;;;-2.74;100.00
68889;BME280;55930;47.412;8.790;2023-02-28T07:02:54;94855.81;;;-2.79;100.00
68889;BME280;55930;47.412;8.790;2023-02-28T07:06:15;94861.72;;;-2.96;100.00
68889;BME280;55930;47.412;8.790;2023-02-28T07:09:38;94868.81;;;-2.83;100.00
68889;BME280;55930;47.412;8.790;2023-02-28T07:12:59;94869.59;;;-2.72;100.00
68889;BME280;55930;47.412;8.790;2023-02-28T07:16:21;94866.66;;;-2.63;100.00
68889;BME280;55930;47.412;8.790;2023-02-28T07:19:41;94870.00;;;-2.66;100.00
68889;BME280;55930;47.412;8.790;2023-02-28T07:23:02;94872.63;;;-2.52;99.95
68889;BME280;55930;47.412;8.790;2023-02-28T07:26:22;94873.00;;;-2.53;99.94
68889;BME280;55930;47.412;8.790;2023-02-28T07:29:42;94871.78;;;-2.77;100.00
68889;BME280;55930;47.412;8.790;2023-02-28T07:33:03;94880.31;;;-2.77;100.00
68889;BME280;55930;47.412;8.790;2023-02-28T07:36:24;94876.31;;;-2.60;100.00
68889;BME280;55930;47.412;8.790;2023-02-28T07:39:44;94880.34;;;-2.73;100.00
68889;BME280;55930;47.412;8.790;2023-02-28T07:43:04;94873.72;;;-2.53;100.00
68889;BME280;55930;47.412;8.790;2023-02-28T07:46:26;94878.59;;;-2.44;99.20
68889;BME280;55930;47.412;8.790;2023-02-28T07:49:46;94881.88;;;-2.65;99.89
68889;BME280;55930;47.412;8.790;2023-02-28T07:53:09;94873.41;;;-2.41;98.77
68889;BME280;55930;47.412;8.790;2023-02-28T07:56:30;94876.00;;;-2.41;99.30
68889;BME280;55930;47.412;8.790;2023-02-28T07:59:50;94884.91;;;-2.31;98.83
68889;BME280;55930;47.412;8.790;2023-02-28T08:03:12;94889.03;;;-2.34;98.57
68889;BME280;55930;47.412;8.790;2023-02-28T08:06:33;94888.63;;;-2.39;98.22
68889;BME280;55930;47.412;8.790;2023-02-28T08:09:53;94896.09;;;-2.20;97.86
68889;BME280;55930;47.412;8.790;2023-02-28T08:13:14;94901.31;;;-2.13;97.87
68889;BME280;55930;47.412;8.790;2023-02-28T08:16:36;94899.03;;;-2.36;98.77
68889;BME280;55930;47.412;8.790;2023-02-28T08:19:58;94900.91;;;-2.22;96.91
68889;BME280;55930;47.412;8.790;2023-02-28T08:23:19;94910.97;;;-2.13;98.38
68889;BME280;55930;47.412;8.790;2023-02-28T08:26:42;94903.97;;;-1.77;95.84
68889;BME280;55930;47.412;8.790;2023-02-28T08:30:05;94896.84;;;-2.12;96.25
68889;BME280;55930;47.412;8.790;2023-02-28T08:33:27;94892.41;;;-2.05;96.79
68889;BME280;55930;47.412;8.790;2023-02-28T08:36:47;94901.75;;;-1.54;93.67
68889;BME280;55930;47.412;8.790;2023-02-28T08:40:08;94894.69;;;-1.92;95.05
68889;BME280;55930;47.412;8.790;2023-02-28T08:43:29;94899.91;;;-1.61;95.03
68889;BME280;55930;47.412;8.790;2023-02-28T08:46:49;94900.25;;;-1.66;94.22
68889;BME280;55930;47.412;8.790;2023-02-28T08:50:12;94896.94;;;-1.63;94.42
68889;BME280;55930;47.412;8.790;2023-02-28T08:53:38;94892.81;;;-1.81;94.65
68889;BME280;55930;47.412;8.790;2023-02-28T08:56:59;94897.28;;;-1.71;94.13
68889;BME280;55930;47.412;8.790;2023-02-28T09:00:20;94900.28;;;-1.55;92.89
68889;BME280;55930;47.412;8.790;2023-02-28T09:03:42;94908.44;;;-1.53;92.52
68889;BME280;55930;47.412;8.790;2023-02-28T09:07:06;94909.53;;;-1.89;93.26
68889;BME280;55930;47.412;8.790;2023-02-28T09:10:26;94912.16;;;-1.68;93.59
68889;BME280;55930;47.412;8.790;2023-02-28T09:13:47;94917.72;;;-1.77;93.50
68889;BME280;55930;47.412;8.790;2023-02-28T09:17:10;94926.22;;;-1.98;94.20
68889;BME280;55930;47.412;8.790;2023-02-28T09:20:32;94935.53;;;-1.86;94.58
68889;BME280;55930;47.412;8.790;2023-02-28T09:23:53;94919.94;;;-1.79;94.32
68889;BME280;55930;47.412;8.790;2023-02-28T09:27:14;94935.88;;;-1.91;92.84
68889;BME280;55930;47.412;8.790;2023-02-28T09:30:34;94928.13;;;-1.66;93.54
68889;BME280;55930;47.412;8.790;2023-02-28T09:33:56;94933.66;;;-1.92;93.61
68889;BME280;55930;47.412;8.790;2023-02-28T09:37:21;94931.06;;;-1.89;93.62
68889;BME280;55930;47.412;8.790;2023-02-28T09:40:53;94917.34;;;-1.79;94.60
68889;BME280;55930;47.412;8.790;2023-02-28T09:47:44;94935.91;;;-1.59;94.16
68889;BME280;55930;47.412;8.790;2023-02-28T09:54:32;94944.47;;;-1.76;95.34
68889;BME280;55930;47.412;8.790;2023-02-28T09:57:54;94947.41;;;-1.74;95.43
68889;BME280;55930;47.412;8.790;2023-02-28T10:01:40;94952.28;;;-1.48;94.52
68889;BME280;55930;47.412;8.790;2023-02-28T10:05:11;94948.22;;;-1.45;93.01
68889;BME280;55930;47.412;8.790;2023-02-28T10:12:12;94947.81;;;-1.65;92.83
68889;BME280;55930;47.412;8.790;2023-02-28T10:15:35;94939.66;;;-1.39;93.27
68889;BME280;55930;47.412;8.790;2023-02-28T10:19:02;94947.84;;;-1.40;92.18
68889;BME280;55930;47.412;8.790;2023-02-28T10:22:34;94950.44;;;-1.37;92.29
68889;BME280;55930;47.412;8.790;2023-02-28T10:26:01;94959.38;;;-1.52;92.41
68889;BME280;55930;47.412;8.790;2023-02-28T10:29:23;94965.69;;;-1.28;92.53
68889;BME280;55930;47.412;8.790;2023-02-28T10:32:50;94968.66;;;-1.40;91.17
68889;BME280;55930;47.412;8.790;2023-02-28T10:36:16;94970.88;;;-1.25;91.53
68889;BME280;55930;47.412;8.790;2023-02-28T10:39:43;94969.03;;;-1.13;91.65
68889;BME280;55930;47.412;8.790;2023-02-28T10:43:18;94968.28;;;-1.18;90.95
68889;BME280;55930;47.412;8.790;2023-02-28T10:46:40;94963.41;;;-1.65;91.82
68889;BME280;55930;47.412;8.790;2023-02-28T10:50:02;94969.38;;;-1.01;91.59
68889;BME280;55930;47.412;8.790;2023-02-28T11:00:36;94970.50;;;-1.20;91.09
68889;BME280;55930;47.412;8.790;2023-02-28T11:03:58;94964.19;;;-1.08;91.95
68889;BME280;55930;47.412;8.790;2023-02-28T11:07:21;94967.16;;;-1.02;90.95
68889;BME280;55930;47.412;8.790;2023-02-28T11:10:57;94954.13;;;-0.81;90.29
68889;BME280;55930;47.412;8.790;2023-02-28T11:14:20;94958.22;;;-1.55;91.28
68889;BME280;55930;47.412;8.790;2023-02-28T11:17:42;94957.88;;;-1.14;90.31
68889;BME280;55930;47.412;8.790;2023-02-28T11:21:03;94960.47;;;-1.18;91.25
68889;BME280;55930;47.412;8.790;2023-02-28T11:27:51;94967.50;;;-0.86;90.56
68889;BME280;55930;47.412;8.790;2023-02-28T11:34:37;94972.72;;;-0.90;89.61
68889;BME280;55930;47.412;8.790;2023-02-28T11:37:57;94978.63;;;-0.71;89.51
68889;BME280;55930;47.412;8.790;2023-02-28T11:52:06;94961.16;;;-0.71;89.33
68889;BME280;55930;47.412;8.790;2023-02-28T11:55:38;94968.56;;;-0.48;88.32
68889;BME280;55930;47.412;8.790;2023-02-28T12:10:29;94960.41;;;-0.57;87.46
68889;BME280;55930;47.412;8.790;2023-02-28T12:28:34;94961.09;;;-0.43;85.76
68889;BME280;55930;47.412;8.790;2023-02-28T12:32:11;94964.09;;;-0.55;87.69
68889;BME280;55930;47.412;8.790;2023-02-28T12:35:37;94953.75;;;-0.87;87.70
68889;BME280;55930;47.412;8.790;2023-02-28T12:39:29;94949.59;;;-0.49;87.53
68889;BME280;55930;47.412;8.790;2023-02-28T12:42:59;94950.41;;;-0.94;88.07
68889;BME280;55930;47.412;8.790;2023-02-28T12:46:55;94957.84;;;-0.86;89.34
68889;BME280;55930;47.412;8.790;2023-02-28T12:50:19;94957.03;;;-0.61;88.36
68889;BME280;55930;47.412;8.790;2023-02-28T12:54:01;94962.97;;;-0.50;88.35
68889;BME280;55930;47.412;8.790;2023-02-28T13:12:13;94953.59;;;-0.30;87.28
68889;BME280;55930;47.412;8.790;2023-02-28T13:15:36;94954.00;;;-0.35;86.89
68889;BME280;55930;47.412;8.790;2023-02-28T13:19:19;94952.44;;;-0.22;88.03
68889;BME280;55930;47.412;8.790;2023-02-28T13:22:53;94957.00;;;-0.40;87.81
68889;BME280;55930;47.412;8.790;2023-02-28T13:26:14;94952.47;;;-0.25;86.46
68889;BME280;55930;47.412;8.790;2023-02-28T13:29:39;94949.63;;;-0.77;86.95
68889;BME280;55930;47.412;8.790;2023-02-28T13:36:40;94951.81;;;-0.51;87.64
68889;BME280;55930;47.412;8.790;2023-02-28T13:40:28;94950.25;;;-0.30;87.61
68889;BME280;55930;47.412;8.790;2023-02-28T13:47:28;94953.56;;;-0.19;85.95
68889;BME280;55930;47.412;8.790;2023-02-28T13:50:52;94959.50;;;-0.15;86.16
68889;BME280;55930;47.412;8.790;2023-02-28T14:06:29;94951.75;;;-0.33;86.99
68889;BME280;55930;47.412;8.790;2023-02-28T14:10:01;94954.78;;;-0.52;88.96
68889;BME280;55930;47.412;8.790;2023-02-28T14:16:48;94967.00;;;-0.28;87.18
68889;BME280;55930;47.412;8.790;2023-02-28T14:20:15;94962.50;;;-0.20;88.06
68889;BME280;55930;47.412;8.790;2023-02-28T14:31:06;94966.34;;;-0.50;87.74
68889;BME280;55930;47.412;8.790;2023-02-28T14:34:43;94958.59;;;-0.85;88.21
68889;BME280;55930;47.412;8.790;2023-02-28T14:38:14;94966.75;;;-0.69;89.49
68889;BME280;55930;47.412;8.790;2023-02-28T14:41:39;94981.28;;;-0.93;89.62
68889;BME280;55930;47.412;8.790;2023-02-28T14:45:00;94983.13;;;-0.93;90.20
68889;BME280;55930;47.412;8.790;2023-02-28T14:48:21;94981.66;;;-1.08;91.36
68889;BME280;55930;47.412;8.790;2023-02-28T14:51:42;94987.97;;;-0.78;90.49
68889;BME280;55930;47.412;8.790;2023-02-28T14:55:06;94988.75;;;-1.05;90.19
68889;BME280;55930;47.412;8.790;2023-02-28T14:58:33;94992.81;;;-0.94;89.27
68889;BME280;55930;47.412;8.790;2023-02-28T15:02:20;94988.72;;;-0.98;90.43
68889;BME280;55930;47.412;8.790;2023-02-28T15:05:41;94990.56;;;-0.95;89.97
68889;BME280;55930;47.412;8.790;2023-02-28T15:09:10;94993.53;;;-0.86;89.77
68889;BME280;55930;47.412;8.790;2023-02-28T15:12:31;94985.00;;;-1.01;90.26
68889;BME280;55930;47.412;8.790;2023-02-28T15:15:57;94995.06;;;-0.89;91.12
68889;BME280;55930;47.412;8.790;2023-02-28T15:19:30;94993.19;;;-0.95;90.67
68889;BME280;55930;47.412;8.790;2023-02-28T15:22:56;94996.91;;;-1.03;92.61
68889;BME280;55930;47.412;8.790;2023-02-28T15:26:21;94995.06;;;-1.13;92.34
68889;BME280;55930;47.412;8.790;2023-02-28T15:29:51;95002.09;;;-1.18;93.45
68889;BME280;55930;47.412;8.790;2023-02-28T15:36:34;95006.19;;;-0.95;92.23
68889;BME280;55930;47.412;8.790;2023-02-28T15:40:11;95013.63;;;-0.87;91.87
68889;BME280;55930;47.412;8.790;2023-02-28T15:43:37;95009.19;;;-1.22;91.68
68889;BME280;55930;47.412;8.790;2023-02-28T15:47:19;95012.91;;;-1.16;93.09
68889;BME280;55930;47.412;8.790;2023-02-28T15:50:40;95003.59;;;-1.27;93.28
68889;BME280;55930;47.412;8.790;2023-02-28T15:54:04;95013.25;;;-1.42;93.59
68889;BME280;55930;47.412;8.790;2023-02-28T15:57:28;95005.44;;;-1.28;93.53
68889;BME280;55930;47.412;8.790;2023-02-28T16:01:45;95014.00;;;-1.31;93.63
68889;BME280;55930;47.412;8.790;2023-02-28T16:04:59;95021.03;;;-1.42;92.76
68889;BME280;55930;47.412;8.790;2023-02-28T16:08:20;95004.69;;;-1.53;94.08
68889;BME280;55930;47.412;8.790;2023-02-28T16:11:47;95015.84;;;-1.42;94.17
68889;BME280;55930;47.412;8.790;2023-02-28T16:15:18;95016.22;;;-1.47;93.98
68889;BME280;55930;47.412;8.790;2023-02-28T16:18:38;95011.38;;;-1.48;95.00
68889;BME280;55930;47.412;8.790;2023-02-28T16:21:59;95017.69;;;-1.57;94.18
68889;BME280;55930;47.412;8.790;2023-02-28T16:25:24;95026.97;;;-1.48;94.48
68889;BME280;55930;47.412;8.790;2023-02-28T16:28:48;95026.25;;;-1.49;95.49
68889;BME280;55930;47.412;8.790;2023-02-28T16:32:12;95025.13;;;-1.48;95.21
68889;BME280;55930;47.412;8.790;2023-02-28T16:35:34;95025.88;;;-1.40;94.07
68889;BME280;55930;47.412;8.790;2023-02-28T16:38:54;95025.88;;;-1.44;95.24
68889;BME280;55930;47.412;8.790;2023-02-28T16:42:20;95025.88;;;-1.47;95.14
68889;BME280;55930;47.412;8.790;2023-02-28T16:45:43;95023.59;;;-1.60;95.65
68889;BME280;55930;47.412;8.790;2023-02-28T16:49:03;95024.03;;;-1.47;96.19
68889;BME280;55930;47.412;8.790;2023-02-28T16:52:24;95024.75;;;-1.61;96.33
68889;BME280;55930;47.412;8.790;2023-02-28T16:55:44;95029.16;;;-1.72;96.51
68889;BME280;55930;47.412;8.790;2023-02-28T16:59:05;95033.25;;;-1.71;95.78
68889;BME280;55930;47.412;8.790;2023-02-28T17:02:25;95031.78;;;-1.65;96.87
68889;BME280;55930;47.412;8.790;2023-02-28T17:05:45;95035.88;;;-1.64;97.14
68889;BME280;55930;47.412;8.790;2023-02-28T17:09:14;95037.72;;;-1.68;97.34
68889;BME280;55930;47.412;8.790;2023-02-28T17:12:35;95042.91;;;-1.71;97.55
68889;BME280;55930;47.412;8.790;2023-02-28T17:15:56;95045.91;;;-1.59;96.64
68889;BME280;55930;47.412;8.790;2023-02-28T17:19:16;95037.41;;;-1.52;96.56
68889;BME280;55930;47.412;8.790;2023-02-28T17:22:37;95050.03;;;-1.47;97.31
68889;BME280;55930;47.412;8.790;2023-02-28T17:25:57;95050.00;;;-1.58;97.06
68889;BME280;55930;47.412;8.790;2023-02-28T17:29:20;95056.31;;;-1.55;97.48
68889;BME280;55930;47.412;8.790;2023-02-28T17:32:41;95062.56;;;-1.74;97.37
68889;BME280;55930;47.412;8.790;2023-02-28T17:36:01;95062.59;;;-1.70;98.15
68889;BME280;55930;47.412;8.790;2023-02-28T17:39:24;95055.13;;;-1.75;97.48
68889;BME280;55930;47.412;8.790;2023-02-28T17:42:45;95067.03;;;-1.74;97.70
68889;BME280;55930;47.412;8.790;2023-02-28T17:46:14;95057.00;;;-1.72;97.76
68889;BME280;55930;47.412;8.790;2023-02-28T17:49:36;95051.81;;;-1.76;97.97
68889;BME280;55930;47.412;8.790;2023-02-28T17:52:56;95054.41;;;-1.72;98.44
68889;BME280;55930;47.412;8.790;2023-02-28T17:56:21;95053.66;;;-1.73;97.92
68889;BME280;55930;47.412;8.790;2023-02-28T17:59:43;95061.50;;;-1.62;98.18
68889;BME280;55930;47.412;8.790;2023-02-28T18:03:03;95055.88;;;-1.78;97.81
68889;BME280;55930;47.412;8.790;2023-02-28T18:06:27;95057.78;;;-1.65;97.50
68889;BME280;55930;47.412;8.790;2023-02-28T18:09:52;95055.53;;;-1.70;97.52
68889;BME280;55930;47.412;8.790;2023-02-28T18:13:12;95049.22;;;-1.65;97.33
68889;BME280;55930;47.412;8.790;2023-02-28T18:16:33;95052.94;;;-1.66;97.80
68889;BME280;55930;47.412;8.790;2023-02-28T18:19:54;95058.47;;;-1.75;98.38
68889;BME280;55930;47.412;8.790;2023-02-28T18:23:14;95044.75;;;-1.72;98.21
68889;BME280;55930;47.412;8.790;2023-02-28T18:26:39;95042.53;;;-1.70;98.43
68889;BME280;55930;47.412;8.790;2023-02-28T18:29:59;95047.00;;;-1.67;98.04
68889;BME280;55930;47.412;8.790;2023-02-28T18:33:22;95033.22;;;-1.74;97.45
68889;BME280;55930;47.412;8.790;2023-02-28T18:36:42;95029.16;;;-1.72;99.34
68889;BME280;55930;47.412;8.790;2023-02-28T18:40:06;95032.16;;;-1.63;97.90
68889;BME280;55930;47.412;8.790;2023-02-28T18:43:28;95026.94;;;-1.70;98.04
68889;BME280;55930;47.412;8.790;2023-02-28T18:46:49;95029.88;;;-1.75;99.05
68889;BME280;55930;47.412;8.790;2023-02-28T18:50:10;95029.19;;;-1.68;98.67
68889;BME280;55930;47.412;8.790;2023-02-28T18:53:33;95022.13;;;-1.68;99.39
68889;BME280;55930;47.412;8.790;2023-02-28T18:56:53;95031.78;;;-1.68;99.00
68889;BME280;55930;47.412;8.790;2023-02-28T19:00:15;95031.75;;;-1.79;98.69
68889;BME280;55930;47.412;8.790;2023-02-28T19:03:40;95024.72;;;-1.68;99.12
68889;BME280;55930;47.412;8.790;2023-02-28T19:07:01;95022.09;;;-1.78;99.89
68889;BME280;55930;47.412;8.790;2023-02-28T19:10:24;95027.31;;;-1.71;99.57
68889;BME280;55930;47.412;8.790;2023-02-28T19:13:45;95029.88;;;-1.75;99.94
68889;BME280;55930;47.412;8.790;2023-02-28T19:17:06;95038.09;;;-1.69;100.00
68889;BME280;55930;47.412;8.790;2023-02-28T19:20:26;95042.91;;;-1.71;99.81
68889;BME280;55930;47.412;8.790;2023-02-28T19:23:47;95047.34;;;-1.72;100.00
68889;BME280;55930;47.412;8.790;2023-02-28T19:27:08;95045.13;;;-1.66;100.00
68889;BME280;55930;47.412;8.790;2023-02-28T19:30:28;95038.47;;;-1.64;100.00
68889;BME280;55930;47.412;8.790;2023-02-28T19:33:49;95030.31;;;-1.62;100.00
68889;BME280;55930;47.412;8.790;2023-02-28T19:37:12;95035.13;;;-1.68;100.00
68889;BME280;55930;47.412;8.790;2023-02-28T19:40:33;95030.63;;;-1.74;100.00
68889;BME280;55930;47.412;8.790;2023-02-28T19:43:53;95023.19;;;-1.79;100.00
68889;BME280;55930;47.412;8.790;2023-02-28T19:47:14;95028.41;;;-1.72;100.00
68889;BME280;55930;47.412;8.790;2023-02-28T19:50:34;95022.84;;;-1.71;99.97
68889;BME280;55930;47.412;8.790;2023-02-28T19:53:56;95022.44;;;-1.83;100.00
68889;BME280;55930;47.412;8.790;2023-02-28T19:57:17;95020.97;;;-1.81;100.00
68889;BME280;55930;47.412;8.790;2023-02-28T20:00:37;95014.63;;;-1.83;100.00
68889;BME280;55930;47.412;8.790;2023-02-28T20:03:59;95017.97;;;-1.86;100.00
68889;BME280;55930;47.412;8.790;2023-02-28T20:07:26;95015.06;;;-1.71;100.00
68889;BME280;55930;47.412;8.790;2023-02-28T20:10:46;95009.09;;;-1.71;100.00
68889;BME280;55930;47.412;8.790;2023-02-28T20:14:06;95011.31;;;-1.73;100.00